This is the latest recevied weather packets stored in our database for station/object KD4EG. If no packets are shown the sender has not sent any weather packets the latest 10 day(s).
| Time | Temp. | Humidity | Pressure | Rain* | Wind** | Luminosity | Snow |
|---|---|---|---|---|---|---|---|
| 1777371828 | 10.56° C | 98% | 1024.7 hPa | 6.1 mm | - | 0 W/m² | - |
| 1777371524 | 10.56° C | 98% | 1024.6 hPa | 6.1 mm | - | 0 W/m² | - |
| 1777371221 | 10.56° C | 98% | 1024.4 hPa | 6.1 mm | - | 0 W/m² | - |
| 1777370917 | 10.56° C | 98% | 1024.2 hPa | 3.05 mm | - | 0 W/m² | - |
| 1777370613 | 10.56° C | 97% | 1024.1 hPa | 1.78 mm | - | 0 W/m² | - |
| 1777370309 | 10.56° C | 97% | 1024 hPa | 3.56 mm | - | 0 W/m² | - |
| 1777370005 | 10.56° C | 97% | 1024.3 hPa | 3.05 mm | - | 0 W/m² | - |
| 1777369091 | 10.56° C | 96% | 1023.8 hPa | 1.78 mm | - | 0 W/m² | - |
| 1777368789 | 10.56° C | 96% | 1024.3 hPa | 0 mm | - | 0 W/m² | - |
| 1777368485 | 10.56° C | 96% | 1024.6 hPa | 0 mm | - | 0 W/m² | - |
| 1777366052 | 11.11° C | 91% | 1022.7 hPa | 4.32 mm | - | 0 W/m² | - |
| 1777365444 | 11.11° C | 88% | 1023 hPa | 1.78 mm | - | 0 W/m² | - |
| 1777365142 | 11.67° C | 87% | 1022.8 hPa | 0 mm | - | 0 W/m² | - |
| 1777364841 | 11.67° C | 86% | 1023.2 hPa | 0 mm | - | 0 W/m² | - |
| 1777364537 | 12.22° C | 84% | 1023.7 hPa | 0 mm | - | 0 W/m² | - |
| 1777364234 | 12.22° C | 81% | 1024.1 hPa | 0 mm | - | 0 W/m² | - |
| 1777363930 | 12.22° C | 80% | 1024.6 hPa | 0 mm | - | 0 W/m² | - |
| 1777363627 | 12.22° C | 78% | 1024.7 hPa | 0 mm | - | 0 W/m² | - |
| 1777363323 | 12.22° C | 79% | 1024.8 hPa | 0 mm | - | 0 W/m² | - |
| 1777363021 | 12.22° C | 79% | 1024.5 hPa | 0 mm | - | 0 W/m² | - |
| 1777362718 | 12.22° C | 79% | 1024.6 hPa | 0 mm | - | 0 W/m² | - |
| 1777362416 | 12.22° C | 78% | 1024.2 hPa | 0 mm | - | 0 W/m² | - |
| 1777362112 | 12.78° C | 77% | 1023.8 hPa | 0 mm | - | 0 W/m² | - |
| 1777361810 | 12.78° C | 77% | 1023.6 hPa | 0 mm | - | 0 W/m² | - |
| 1777361506 | 12.78° C | 77% | 1023.6 hPa | 0 mm | - | 0 W/m² | - |
* Rain latest hour (hover to see other rain measurements)
** Current wind speed in m/s (hover to see current wind gust speed)